sensor_id;sensor_type;location;lat;lon;timestamp;P1;durP1;ratioP1;P2;durP2;ratioP2
35675;SDS011;21790;42.668;23.298;2022-09-01T00:01:55;17.88;;;9.55;;
35675;SDS011;21790;42.668;23.298;2022-09-01T00:04:22;18.80;;;9.82;;
35675;SDS011;21790;42.668;23.298;2022-09-01T00:06:52;17.80;;;10.95;;
35675;SDS011;21790;42.668;23.298;2022-09-01T00:09:20;20.75;;;10.30;;
35675;SDS011;21790;42.668;23.298;2022-09-01T00:11:47;16.65;;;10.50;;
35675;SDS011;21790;42.668;23.298;2022-09-01T00:14:16;17.85;;;9.27;;
35675;SDS011;21790;42.668;23.298;2022-09-01T00:16:43;14.77;;;9.82;;
35675;SDS011;21790;42.668;23.298;2022-09-01T00:19:09;21.20;;;10.15;;
35675;SDS011;21790;42.668;23.298;2022-09-01T00:21:39;14.18;;;9.38;;
35675;SDS011;21790;42.668;23.298;2022-09-01T00:24:07;16.02;;;8.68;;
35675;SDS011;21790;42.668;23.298;2022-09-01T00:26:34;14.80;;;9.43;;
35675;SDS011;21790;42.668;23.298;2022-09-01T00:28:59;19.10;;;10.05;;
35675;SDS011;21790;42.668;23.298;2022-09-01T00:31:25;13.63;;;8.95;;
35675;SDS011;21790;42.668;23.298;2022-09-01T00:33:51;17.95;;;9.85;;
35675;SDS011;21790;42.668;23.298;2022-09-01T00:36:16;15.05;;;10.00;;
35675;SDS011;21790;42.668;23.298;2022-09-01T00:38:43;17.98;;;10.40;;
35675;SDS011;21790;42.668;23.298;2022-09-01T00:41:09;16.90;;;9.95;;
35675;SDS011;21790;42.668;23.298;2022-09-01T00:46:04;18.08;;;10.43;;
35675;SDS011;21790;42.668;23.298;2022-09-01T00:48:31;14.85;;;8.98;;
35675;SDS011;21790;42.668;23.298;2022-09-01T00:50:57;14.85;;;9.55;;
35675;SDS011;21790;42.668;23.298;2022-09-01T00:53:24;13.70;;;8.77;;
35675;SDS011;21790;42.668;23.298;2022-09-01T00:55:50;15.15;;;9.13;;
35675;SDS011;21790;42.668;23.298;2022-09-01T00:58:15;13.80;;;9.80;;
35675;SDS011;21790;42.668;23.298;2022-09-01T01:00:41;15.15;;;9.57;;
35675;SDS011;21790;42.668;23.298;2022-09-01T01:03:09;14.02;;;9.23;;
35675;SDS011;21790;42.668;23.298;2022-09-01T01:05:39;16.45;;;9.48;;
35675;SDS011;21790;42.668;23.298;2022-09-01T01:08:11;14.25;;;8.65;;
35675;SDS011;21790;42.668;23.298;2022-09-01T01:10:37;14.23;;;9.05;;
35675;SDS011;21790;42.668;23.298;2022-09-01T01:13:06;18.52;;;9.23;;
35675;SDS011;21790;42.668;23.298;2022-09-01T01:15:34;15.05;;;9.30;;
35675;SDS011;21790;42.668;23.298;2022-09-01T01:18:00;12.95;;;8.50;;
35675;SDS011;21790;42.668;23.298;2022-09-01T01:20:26;16.92;;;9.20;;
35675;SDS011;21790;42.668;23.298;2022-09-01T01:23:30;15.95;;;9.25;;
35675;SDS011;21790;42.668;23.298;2022-09-01T01:26:04;20.30;;;9.55;;
35675;SDS011;21790;42.668;23.298;2022-09-01T01:28:35;14.38;;;9.57;;
35675;SDS011;21790;42.668;23.298;2022-09-01T01:31:04;13.73;;;9.55;;
35675;SDS011;21790;42.668;23.298;2022-09-01T01:33:40;15.40;;;10.05;;
35675;SDS011;21790;42.668;23.298;2022-09-01T01:36:15;17.63;;;10.05;;
35675;SDS011;21790;42.668;23.298;2022-09-01T01:38:45;14.30;;;9.20;;
35675;SDS011;21790;42.668;23.298;2022-09-01T01:41:14;15.43;;;8.90;;
35675;SDS011;21790;42.668;23.298;2022-09-01T01:43:43;14.45;;;8.38;;
35675;SDS011;21790;42.668;23.298;2022-09-01T01:46:09;16.75;;;10.18;;
35675;SDS011;21790;42.668;23.298;2022-09-01T01:48:37;17.15;;;9.65;;
35675;SDS011;21790;42.668;23.298;2022-09-01T01:51:05;18.48;;;10.57;;
35675;SDS011;21790;42.668;23.298;2022-09-01T01:53:32;16.88;;;10.32;;
35675;SDS011;21790;42.668;23.298;2022-09-01T01:55:57;14.57;;;9.32;;
35675;SDS011;21790;42.668;23.298;2022-09-01T01:58:25;13.48;;;9.52;;
35675;SDS011;21790;42.668;23.298;2022-09-01T02:00:53;17.33;;;11.05;;
35675;SDS011;21790;42.668;23.298;2022-09-01T02:03:20;16.00;;;10.52;;
35675;SDS011;21790;42.668;23.298;2022-09-01T02:06:02;17.25;;;10.00;;
35675;SDS011;21790;42.668;23.298;2022-09-01T02:08:32;14.98;;;9.57;;
35675;SDS011;21790;42.668;23.298;2022-09-01T02:10:59;19.17;;;10.98;;
35675;SDS011;21790;42.668;23.298;2022-09-01T02:13:25;16.55;;;10.07;;
35675;SDS011;21790;42.668;23.298;2022-09-01T02:15:55;16.83;;;10.95;;
35675;SDS011;21790;42.668;23.298;2022-09-01T02:18:23;17.90;;;10.90;;
35675;SDS011;21790;42.668;23.298;2022-09-01T02:21:00;19.52;;;11.85;;
35675;SDS011;21790;42.668;23.298;2022-09-01T02:23:27;26.42;;;13.70;;
35675;SDS011;21790;42.668;23.298;2022-09-01T02:25:55;17.55;;;10.93;;
35675;SDS011;21790;42.668;23.298;2022-09-01T02:28:26;24.20;;;12.45;;
35675;SDS011;21790;42.668;23.298;2022-09-01T02:30:53;19.70;;;11.88;;
35675;SDS011;21790;42.668;23.298;2022-09-01T02:33:20;20.40;;;10.50;;
35675;SDS011;21790;42.668;23.298;2022-09-01T02:35:48;15.40;;;11.13;;
35675;SDS011;21790;42.668;23.298;2022-09-01T02:38:15;18.52;;;11.10;;
35675;SDS011;21790;42.668;23.298;2022-09-01T02:40:45;23.52;;;11.30;;
35675;SDS011;21790;42.668;23.298;2022-09-01T02:43:12;17.35;;;11.27;;
35675;SDS011;21790;42.668;23.298;2022-09-01T02:45:43;17.88;;;10.50;;
35675;SDS011;21790;42.668;23.298;2022-09-01T02:48:10;18.27;;;10.60;;
35675;SDS011;21790;42.668;23.298;2022-09-01T02:50:37;22.10;;;10.88;;
35675;SDS011;21790;42.668;23.298;2022-09-01T02:53:03;16.48;;;10.68;;
35675;SDS011;21790;42.668;23.298;2022-09-01T02:55:35;15.52;;;9.70;;
35675;SDS011;21790;42.668;23.298;2022-09-01T02:58:01;20.60;;;10.60;;
35675;SDS011;21790;42.668;23.298;2022-09-01T03:00:26;17.38;;;11.45;;
35675;SDS011;21790;42.668;23.298;2022-09-01T03:02:58;16.70;;;11.25;;
35675;SDS011;21790;42.668;23.298;2022-09-01T03:05:26;20.40;;;10.27;;
35675;SDS011;21790;42.668;23.298;2022-09-01T03:07:55;17.33;;;11.35;;
35675;SDS011;21790;42.668;23.298;2022-09-01T03:10:32;17.60;;;10.88;;
35675;SDS011;21790;42.668;23.298;2022-09-01T03:13:01;17.33;;;10.40;;
35675;SDS011;21790;42.668;23.298;2022-09-01T03:15:30;15.77;;;10.18;;
35675;SDS011;21790;42.668;23.298;2022-09-01T03:17:57;21.15;;;11.05;;
35675;SDS011;21790;42.668;23.298;2022-09-01T03:20:25;22.77;;;11.95;;
35675;SDS011;21790;42.668;23.298;2022-09-01T03:22:52;18.52;;;11.02;;
35675;SDS011;21790;42.668;23.298;2022-09-01T03:25:20;21.55;;;10.95;;
35675;SDS011;21790;42.668;23.298;2022-09-01T03:27:47;19.45;;;11.68;;
35675;SDS011;21790;42.668;23.298;2022-09-01T03:30:13;18.77;;;11.45;;
35675;SDS011;21790;42.668;23.298;2022-09-01T03:32:38;18.38;;;10.48;;
35675;SDS011;21790;42.668;23.298;2022-09-01T03:35:04;21.50;;;10.40;;
35675;SDS011;21790;42.668;23.298;2022-09-01T03:37:30;20.00;;;11.50;;
35675;SDS011;21790;42.668;23.298;2022-09-01T03:39:56;14.38;;;10.05;;
35675;SDS011;21790;42.668;23.298;2022-09-01T03:42:22;17.77;;;10.15;;
35675;SDS011;21790;42.668;23.298;2022-09-01T03:44:53;17.00;;;10.85;;
35675;SDS011;21790;42.668;23.298;2022-09-01T03:47:20;18.27;;;11.57;;
35675;SDS011;21790;42.668;23.298;2022-09-01T03:49:46;20.17;;;10.73;;
35675;SDS011;21790;42.668;23.298;2022-09-01T03:52:14;27.60;;;12.25;;
35675;SDS011;21790;42.668;23.298;2022-09-01T03:54:41;26.08;;;12.73;;
35675;SDS011;21790;42.668;23.298;2022-09-01T03:57:08;23.48;;;12.80;;
35675;SDS011;21790;42.668;23.298;2022-09-01T03:59:34;22.90;;;12.25;;
35675;SDS011;21790;42.668;23.298;2022-09-01T04:02:03;20.48;;;12.45;;
35675;SDS011;21790;42.668;23.298;2022-09-01T04:04:28;19.88;;;12.98;;
35675;SDS011;21790;42.668;23.298;2022-09-01T04:06:57;21.33;;;12.00;;
35675;SDS011;21790;42.668;23.298;2022-09-01T04:09:24;24.42;;;13.50;;
35675;SDS011;21790;42.668;23.298;2022-09-01T04:11:50;21.65;;;13.05;;
35675;SDS011;21790;42.668;23.298;2022-09-01T04:14:15;22.15;;;12.95;;
35675;SDS011;21790;42.668;23.298;2022-09-01T04:16:41;21.27;;;12.45;;
35675;SDS011;21790;42.668;23.298;2022-09-01T04:19:27;19.33;;;10.95;;
35675;SDS011;21790;42.668;23.298;2022-09-01T04:21:55;24.23;;;11.23;;
35675;SDS011;21790;42.668;23.298;2022-09-01T04:24:24;19.02;;;11.27;;
35675;SDS011;21790;42.668;23.298;2022-09-01T04:26:52;19.55;;;10.52;;
35675;SDS011;21790;42.668;23.298;2022-09-01T04:29:19;16.83;;;10.32;;
35675;SDS011;21790;42.668;23.298;2022-09-01T04:31:51;18.17;;;10.88;;
35675;SDS011;21790;42.668;23.298;2022-09-01T04:34:21;22.00;;;11.30;;
35675;SDS011;21790;42.668;23.298;2022-09-01T04:36:48;22.95;;;10.35;;
35675;SDS011;21790;42.668;23.298;2022-09-01T04:39:18;22.05;;;10.30;;
35675;SDS011;21790;42.668;23.298;2022-09-01T04:41:44;25.95;;;11.00;;
35675;SDS011;21790;42.668;23.298;2022-09-01T04:44:11;20.35;;;11.40;;
35675;SDS011;21790;42.668;23.298;2022-09-01T04:46:39;21.23;;;11.65;;
35675;SDS011;21790;42.668;23.298;2022-09-01T04:49:06;23.33;;;11.30;;
35675;SDS011;21790;42.668;23.298;2022-09-01T04:51:39;25.10;;;11.20;;
35675;SDS011;21790;42.668;23.298;2022-09-01T04:54:06;26.17;;;11.50;;
35675;SDS011;21790;42.668;23.298;2022-09-01T04:56:35;18.40;;;11.30;;
35675;SDS011;21790;42.668;23.298;2022-09-01T04:59:01;20.80;;;12.38;;
35675;SDS011;21790;42.668;23.298;2022-09-01T05:01:31;24.08;;;12.52;;
35675;SDS011;21790;42.668;23.298;2022-09-01T05:04:17;21.58;;;11.02;;
35675;SDS011;21790;42.668;23.298;2022-09-01T05:06:47;17.00;;;11.40;;
35675;SDS011;21790;42.668;23.298;2022-09-01T05:09:15;16.88;;;11.00;;
35675;SDS011;21790;42.668;23.298;2022-09-01T05:11:43;16.90;;;10.88;;
35675;SDS011;21790;42.668;23.298;2022-09-01T05:14:10;19.25;;;11.30;;
35675;SDS011;21790;42.668;23.298;2022-09-01T05:16:37;28.25;;;11.80;;
35675;SDS011;21790;42.668;23.298;2022-09-01T05:19:05;24.83;;;11.52;;
35675;SDS011;21790;42.668;23.298;2022-09-01T05:21:31;21.83;;;11.82;;
35675;SDS011;21790;42.668;23.298;2022-09-01T05:23:57;22.52;;;11.98;;
35675;SDS011;21790;42.668;23.298;2022-09-01T05:26:29;27.55;;;12.13;;
35675;SDS011;21790;42.668;23.298;2022-09-01T05:28:57;24.73;;;12.50;;
35675;SDS011;21790;42.668;23.298;2022-09-01T05:31:26;34.17;;;13.43;;
35675;SDS011;21790;42.668;23.298;2022-09-01T05:33:53;20.92;;;11.20;;
35675;SDS011;21790;42.668;23.298;2022-09-01T05:36:20;27.88;;;11.63;;
35675;SDS011;21790;42.668;23.298;2022-09-01T05:38:47;18.60;;;11.45;;
35675;SDS011;21790;42.668;23.298;2022-09-01T05:41:14;16.00;;;11.02;;
35675;SDS011;21790;42.668;23.298;2022-09-01T05:43:41;21.80;;;11.93;;
35675;SDS011;21790;42.668;23.298;2022-09-01T05:46:11;23.23;;;12.65;;
35675;SDS011;21790;42.668;23.298;2022-09-01T05:48:41;19.95;;;12.73;;
35675;SDS011;21790;42.668;23.298;2022-09-01T05:51:10;19.00;;;11.75;;
35675;SDS011;21790;42.668;23.298;2022-09-01T05:53:40;26.35;;;12.43;;
35675;SDS011;21790;42.668;23.298;2022-09-01T05:56:07;19.65;;;12.75;;
35675;SDS011;21790;42.668;23.298;2022-09-01T05:58:33;27.77;;;13.20;;
35675;SDS011;21790;42.668;23.298;2022-09-01T06:01:01;23.45;;;12.45;;
35675;SDS011;21790;42.668;23.298;2022-09-01T06:03:27;22.88;;;12.20;;
35675;SDS011;21790;42.668;23.298;2022-09-01T06:05:53;23.83;;;12.48;;
35675;SDS011;21790;42.668;23.298;2022-09-01T06:08:22;25.15;;;12.98;;
35675;SDS011;21790;42.668;23.298;2022-09-01T06:10:49;26.95;;;12.85;;
35675;SDS011;21790;42.668;23.298;2022-09-01T06:13:16;21.63;;;13.30;;
35675;SDS011;21790;42.668;23.298;2022-09-01T06:15:46;27.58;;;14.48;;
35675;SDS011;21790;42.668;23.298;2022-09-01T06:18:13;36.45;;;17.40;;
35675;SDS011;21790;42.668;23.298;2022-09-01T06:20:42;33.22;;;18.02;;
35675;SDS011;21790;42.668;23.298;2022-09-01T06:23:10;23.27;;;14.40;;
35675;SDS011;21790;42.668;23.298;2022-09-01T06:25:39;30.85;;;14.20;;
35675;SDS011;21790;42.668;23.298;2022-09-01T06:28:15;25.15;;;13.75;;
35675;SDS011;21790;42.668;23.298;2022-09-01T06:33:10;25.77;;;14.02;;
35675;SDS011;21790;42.668;23.298;2022-09-01T06:35:37;23.98;;;14.32;;
35675;SDS011;21790;42.668;23.298;2022-09-01T06:38:05;23.65;;;13.23;;
35675;SDS011;21790;42.668;23.298;2022-09-01T06:40:31;22.08;;;13.45;;
35675;SDS011;21790;42.668;23.298;2022-09-01T06:42:58;31.67;;;14.30;;
35675;SDS011;21790;42.668;23.298;2022-09-01T06:45:26;27.95;;;12.75;;
35675;SDS011;21790;42.668;23.298;2022-09-01T06:47:52;28.02;;;14.80;;
35675;SDS011;21790;42.668;23.298;2022-09-01T06:50:20;24.52;;;13.82;;
35675;SDS011;21790;42.668;23.298;2022-09-01T06:52:48;22.48;;;13.55;;
35675;SDS011;21790;42.668;23.298;2022-09-01T06:55:15;27.60;;;14.60;;
35675;SDS011;21790;42.668;23.298;2022-09-01T06:57:41;27.95;;;14.10;;
35675;SDS011;21790;42.668;23.298;2022-09-01T07:00:13;29.42;;;14.52;;
35675;SDS011;21790;42.668;23.298;2022-09-01T07:02:45;23.40;;;14.45;;
35675;SDS011;21790;42.668;23.298;2022-09-01T07:05:13;31.33;;;14.88;;
35675;SDS011;21790;42.668;23.298;2022-09-01T07:07:45;24.13;;;14.35;;
35675;SDS011;21790;42.668;23.298;2022-09-01T07:10:16;22.80;;;13.07;;
35675;SDS011;21790;42.668;23.298;2022-09-01T07:12:50;25.70;;;14.77;;
35675;SDS011;21790;42.668;23.298;2022-09-01T07:15:17;26.50;;;14.57;;
35675;SDS011;21790;42.668;23.298;2022-09-01T07:17:51;29.60;;;14.65;;
35675;SDS011;21790;42.668;23.298;2022-09-01T07:20:18;37.03;;;19.73;;
35675;SDS011;21790;42.668;23.298;2022-09-01T07:22:46;34.35;;;19.02;;
35675;SDS011;21790;42.668;23.298;2022-09-01T07:25:12;29.73;;;16.13;;
35675;SDS011;21790;42.668;23.298;2022-09-01T07:27:39;32.35;;;17.10;;
35675;SDS011;21790;42.668;23.298;2022-09-01T07:30:09;32.83;;;16.85;;
35675;SDS011;21790;42.668;23.298;2022-09-01T07:32:36;31.95;;;16.52;;
35675;SDS011;21790;42.668;23.298;2022-09-01T07:35:03;37.10;;;17.40;;
35675;SDS011;21790;42.668;23.298;2022-09-01T07:37:31;32.22;;;15.30;;
35675;SDS011;21790;42.668;23.298;2022-09-01T07:40:01;37.00;;;16.80;;
35675;SDS011;21790;42.668;23.298;2022-09-01T07:42:31;27.95;;;13.18;;
35675;SDS011;21790;42.668;23.298;2022-09-01T07:44:57;25.90;;;14.10;;
35675;SDS011;21790;42.668;23.298;2022-09-01T07:47:24;31.45;;;15.50;;
35675;SDS011;21790;42.668;23.298;2022-09-01T07:49:49;28.92;;;15.52;;
35675;SDS011;21790;42.668;23.298;2022-09-01T07:52:15;31.75;;;15.27;;
35675;SDS011;21790;42.668;23.298;2022-09-01T07:54:42;29.48;;;16.73;;
35675;SDS011;21790;42.668;23.298;2022-09-01T07:57:07;27.42;;;15.32;;
35675;SDS011;21790;42.668;23.298;2022-09-01T07:59:32;30.25;;;15.10;;
35675;SDS011;21790;42.668;23.298;2022-09-01T08:01:59;29.83;;;15.38;;
35675;SDS011;21790;42.668;23.298;2022-09-01T08:04:28;27.77;;;15.40;;
35675;SDS011;21790;42.668;23.298;2022-09-01T08:06:53;34.17;;;16.23;;
35675;SDS011;21790;42.668;23.298;2022-09-01T08:09:20;36.97;;;16.27;;
35675;SDS011;21790;42.668;23.298;2022-09-01T08:11:45;31.60;;;15.73;;
35675;SDS011;21790;42.668;23.298;2022-09-01T08:14:11;30.20;;;15.73;;
35675;SDS011;21790;42.668;23.298;2022-09-01T08:16:36;30.52;;;15.40;;
35675;SDS011;21790;42.668;23.298;2022-09-01T08:19:02;33.75;;;17.05;;
35675;SDS011;21790;42.668;23.298;2022-09-01T08:21:27;27.00;;;15.23;;
35675;SDS011;21790;42.668;23.298;2022-09-01T08:23:53;33.83;;;16.40;;
35675;SDS011;21790;42.668;23.298;2022-09-01T08:26:21;31.70;;;16.58;;
35675;SDS011;21790;42.668;23.298;2022-09-01T08:28:49;28.00;;;14.82;;
35675;SDS011;21790;42.668;23.298;2022-09-01T08:31:16;29.42;;;15.15;;
35675;SDS011;21790;42.668;23.298;2022-09-01T08:33:43;34.35;;;15.43;;
35675;SDS011;21790;42.668;23.298;2022-09-01T08:36:11;28.50;;;15.85;;
35675;SDS011;21790;42.668;23.298;2022-09-01T08:38:39;26.58;;;14.45;;
35675;SDS011;21790;42.668;23.298;2022-09-01T08:41:05;27.92;;;13.93;;
35675;SDS011;21790;42.668;23.298;2022-09-01T08:44:13;29.05;;;14.23;;
35675;SDS011;21790;42.668;23.298;2022-09-01T08:46:57;24.95;;;13.55;;
35675;SDS011;21790;42.668;23.298;2022-09-01T08:49:27;21.52;;;12.35;;
35675;SDS011;21790;42.668;23.298;2022-09-01T08:51:59;24.42;;;13.45;;
35675;SDS011;21790;42.668;23.298;2022-09-01T08:54:41;24.90;;;13.80;;
35675;SDS011;21790;42.668;23.298;2022-09-01T08:57:20;26.92;;;13.15;;
35675;SDS011;21790;42.668;23.298;2022-09-01T08:59:51;27.50;;;12.90;;
35675;SDS011;21790;42.668;23.298;2022-09-01T09:10:45;26.08;;;12.82;;
35675;SDS011;21790;42.668;23.298;2022-09-01T09:16:31;21.73;;;12.25;;
35675;SDS011;21790;42.668;23.298;2022-09-01T09:19:03;24.17;;;12.65;;
35675;SDS011;21790;42.668;23.298;2022-09-01T09:26:38;20.67;;;10.25;;
35675;SDS011;21790;42.668;23.298;2022-09-01T09:29:03;18.98;;;10.75;;
35675;SDS011;21790;42.668;23.298;2022-09-01T09:31:30;23.52;;;13.13;;
35675;SDS011;21790;42.668;23.298;2022-09-01T09:36:51;20.60;;;11.85;;
35675;SDS011;21790;42.668;23.298;2022-09-01T09:39:17;20.00;;;10.13;;
35675;SDS011;21790;42.668;23.298;2022-09-01T09:41:43;19.52;;;9.90;;
35675;SDS011;21790;42.668;23.298;2022-09-01T09:44:29;26.02;;;10.38;;
35675;SDS011;21790;42.668;23.298;2022-09-01T09:46:56;21.63;;;11.45;;
35675;SDS011;21790;42.668;23.298;2022-09-01T09:49:27;25.48;;;11.18;;
35675;SDS011;21790;42.668;23.298;2022-09-01T09:54:29;15.00;;;9.32;;
35675;SDS011;21790;42.668;23.298;2022-09-01T09:57:17;16.63;;;9.88;;
35675;SDS011;21790;42.668;23.298;2022-09-01T10:04:56;12.82;;;8.23;;
35675;SDS011;21790;42.668;23.298;2022-09-01T10:07:24;15.00;;;8.48;;
35675;SDS011;21790;42.668;23.298;2022-09-01T10:09:56;20.85;;;8.88;;
35675;SDS011;21790;42.668;23.298;2022-09-01T10:12:24;17.48;;;9.40;;
35675;SDS011;21790;42.668;23.298;2022-09-01T10:14:56;15.35;;;10.30;;
35675;SDS011;21790;42.668;23.298;2022-09-01T10:20:08;16.55;;;9.90;;
35675;SDS011;21790;42.668;23.298;2022-09-01T10:22:38;22.30;;;9.98;;
35675;SDS011;21790;42.668;23.298;2022-09-01T10:25:06;14.85;;;9.10;;
35675;SDS011;21790;42.668;23.298;2022-09-01T10:27:38;14.27;;;9.05;;
35675;SDS011;21790;42.668;23.298;2022-09-01T10:35:21;19.52;;;9.80;;
35675;SDS011;21790;42.668;23.298;2022-09-01T10:37:50;19.23;;;9.65;;
35675;SDS011;21790;42.668;23.298;2022-09-01T10:40:18;22.33;;;10.18;;
35675;SDS011;21790;42.668;23.298;2022-09-01T10:42:48;20.67;;;10.23;;
35675;SDS011;21790;42.668;23.298;2022-09-01T10:45:29;18.95;;;9.70;;
35675;SDS011;21790;42.668;23.298;2022-09-01T10:53:37;19.58;;;10.18;;
35675;SDS011;21790;42.668;23.298;2022-09-01T10:56:17;18.58;;;9.52;;
35675;SDS011;21790;42.668;23.298;2022-09-01T11:04:16;18.13;;;8.68;;
35675;SDS011;21790;42.668;23.298;2022-09-01T11:07:17;17.63;;;9.15;;
35675;SDS011;21790;42.668;23.298;2022-09-01T11:10:22;14.82;;;8.98;;
35675;SDS011;21790;42.668;23.298;2022-09-01T11:13:05;17.63;;;9.27;;
35675;SDS011;21790;42.668;23.298;2022-09-01T11:18:23;22.50;;;9.15;;
35675;SDS011;21790;42.668;23.298;2022-09-01T11:21:12;20.45;;;9.88;;
35675;SDS011;21790;42.668;23.298;2022-09-01T11:27:02;15.15;;;8.90;;
35675;SDS011;21790;42.668;23.298;2022-09-01T11:32:18;14.60;;;8.90;;
35675;SDS011;21790;42.668;23.298;2022-09-01T11:34:48;13.65;;;7.95;;
35675;SDS011;21790;42.668;23.298;2022-09-01T11:37:16;19.38;;;8.52;;
35675;SDS011;21790;42.668;23.298;2022-09-01T11:39:48;14.52;;;9.10;;
35675;SDS011;21790;42.668;23.298;2022-09-01T11:42:20;17.17;;;8.45;;
35675;SDS011;21790;42.668;23.298;2022-09-01T11:47:37;11.85;;;8.07;;
35675;SDS011;21790;42.668;23.298;2022-09-01T11:50:06;21.38;;;8.43;;
35675;SDS011;21790;42.668;23.298;2022-09-01T11:52:41;21.63;;;8.55;;
35675;SDS011;21790;42.668;23.298;2022-09-01T11:55:17;9.60;;;6.90;;
35675;SDS011;21790;42.668;23.298;2022-09-01T11:57:54;9.98;;;7.72;;
35675;SDS011;21790;42.668;23.298;2022-09-01T12:00:24;12.32;;;7.25;;
35675;SDS011;21790;42.668;23.298;2022-09-01T12:03:05;13.93;;;7.15;;
35675;SDS011;21790;42.668;23.298;2022-09-01T12:05:45;12.05;;;7.68;;
35675;SDS011;21790;42.668;23.298;2022-09-01T12:08:17;19.25;;;7.57;;
35675;SDS011;21790;42.668;23.298;2022-09-01T12:10:43;14.02;;;7.40;;
35675;SDS011;21790;42.668;23.298;2022-09-01T12:13:15;11.73;;;7.35;;
35675;SDS011;21790;42.668;23.298;2022-09-01T12:15:41;12.18;;;7.18;;
35675;SDS011;21790;42.668;23.298;2022-09-01T12:18:15;15.65;;;7.70;;
35675;SDS011;21790;42.668;23.298;2022-09-01T12:20:45;12.32;;;7.85;;
35675;SDS011;21790;42.668;23.298;2022-09-01T12:26:07;17.02;;;8.13;;
35675;SDS011;21790;42.668;23.298;2022-09-01T12:28:36;10.73;;;7.82;;
35675;SDS011;21790;42.668;23.298;2022-09-01T12:31:06;10.75;;;7.53;;
35675;SDS011;21790;42.668;23.298;2022-09-01T12:33:37;16.02;;;8.50;;
35675;SDS011;21790;42.668;23.298;2022-09-01T12:38:54;11.80;;;7.70;;
35675;SDS011;21790;42.668;23.298;2022-09-01T12:46:53;18.02;;;7.78;;
35675;SDS011;21790;42.668;23.298;2022-09-01T12:49:22;12.25;;;7.65;;
35675;SDS011;21790;42.668;23.298;2022-09-01T12:54:50;15.15;;;8.25;;
35675;SDS011;21790;42.668;23.298;2022-09-01T12:57:47;13.05;;;8.32;;
35675;SDS011;21790;42.668;23.298;2022-09-01T13:00:18;13.00;;;8.23;;
35675;SDS011;21790;42.668;23.298;2022-09-01T13:02:49;16.13;;;8.55;;
35675;SDS011;21790;42.668;23.298;2022-09-01T13:08:05;14.70;;;8.25;;
35675;SDS011;21790;42.668;23.298;2022-09-01T13:10:34;14.20;;;8.63;;
35675;SDS011;21790;42.668;23.298;2022-09-01T13:13:19;17.75;;;8.55;;
35675;SDS011;21790;42.668;23.298;2022-09-01T13:15:52;17.23;;;8.55;;
35675;SDS011;21790;42.668;23.298;2022-09-01T13:18:20;12.23;;;8.15;;
35675;SDS011;21790;42.668;23.298;2022-09-01T13:20:47;10.70;;;7.93;;
35675;SDS011;21790;42.668;23.298;2022-09-01T13:23:14;17.33;;;8.63;;
35675;SDS011;21790;42.668;23.298;2022-09-01T13:25:40;14.88;;;7.95;;
35675;SDS011;21790;42.668;23.298;2022-09-01T13:28:08;15.32;;;9.60;;
35675;SDS011;21790;42.668;23.298;2022-09-01T13:30:35;17.00;;;8.85;;
35675;SDS011;21790;42.668;23.298;2022-09-01T13:33:01;13.60;;;8.48;;
35675;SDS011;21790;42.668;23.298;2022-09-01T13:35:27;13.68;;;8.85;;
35675;SDS011;21790;42.668;23.298;2022-09-01T13:37:52;22.70;;;8.57;;
35675;SDS011;21790;42.668;23.298;2022-09-01T13:40:19;17.40;;;9.07;;
35675;SDS011;21790;42.668;23.298;2022-09-01T13:42:47;15.55;;;8.23;;
35675;SDS011;21790;42.668;23.298;2022-09-01T13:45:15;18.65;;;9.30;;
35675;SDS011;21790;42.668;23.298;2022-09-01T13:47:44;17.25;;;9.25;;
35675;SDS011;21790;42.668;23.298;2022-09-01T13:50:11;16.38;;;8.40;;
35675;SDS011;21790;42.668;23.298;2022-09-01T13:52:43;15.07;;;8.55;;
35675;SDS011;21790;42.668;23.298;2022-09-01T13:55:15;14.25;;;8.32;;
35675;SDS011;21790;42.668;23.298;2022-09-01T13:57:43;13.50;;;7.68;;
35675;SDS011;21790;42.668;23.298;2022-09-01T14:00:10;13.25;;;7.43;;
35675;SDS011;21790;42.668;23.298;2022-09-01T14:02:40;13.52;;;8.00;;
35675;SDS011;21790;42.668;23.298;2022-09-01T14:05:13;10.38;;;6.88;;
35675;SDS011;21790;42.668;23.298;2022-09-01T14:07:39;11.38;;;7.63;;
35675;SDS011;21790;42.668;23.298;2022-09-01T14:10:04;18.35;;;7.57;;
35675;SDS011;21790;42.668;23.298;2022-09-01T14:12:31;11.25;;;7.63;;
35675;SDS011;21790;42.668;23.298;2022-09-01T14:14:57;17.98;;;8.00;;
35675;SDS011;21790;42.668;23.298;2022-09-01T14:17:22;11.07;;;7.65;;
35675;SDS011;21790;42.668;23.298;2022-09-01T14:19:48;16.75;;;8.25;;
35675;SDS011;21790;42.668;23.298;2022-09-01T14:22:14;13.90;;;7.93;;
35675;SDS011;21790;42.668;23.298;2022-09-01T14:24:40;13.55;;;8.27;;
35675;SDS011;21790;42.668;23.298;2022-09-01T14:27:05;12.77;;;8.85;;
35675;SDS011;21790;42.668;23.298;2022-09-01T14:29:31;18.90;;;8.55;;
35675;SDS011;21790;42.668;23.298;2022-09-01T14:31:56;17.73;;;8.80;;
35675;SDS011;21790;42.668;23.298;2022-09-01T14:34:22;14.27;;;8.00;;
35675;SDS011;21790;42.668;23.298;2022-09-01T14:36:51;16.63;;;8.98;;
35675;SDS011;21790;42.668;23.298;2022-09-01T14:39:22;13.27;;;8.48;;
35675;SDS011;21790;42.668;23.298;2022-09-01T14:41:48;19.63;;;8.13;;
35675;SDS011;21790;42.668;23.298;2022-09-01T14:44:13;12.90;;;8.38;;
35675;SDS011;21790;42.668;23.298;2022-09-01T14:46:39;14.70;;;8.60;;
35675;SDS011;21790;42.668;23.298;2022-09-01T14:49:04;15.95;;;8.13;;
35675;SDS011;21790;42.668;23.298;2022-09-01T14:51:32;15.55;;;8.30;;
35675;SDS011;21790;42.668;23.298;2022-09-01T14:53:58;12.85;;;8.30;;
35675;SDS011;21790;42.668;23.298;2022-09-01T14:56:24;11.95;;;8.18;;
35675;SDS011;21790;42.668;23.298;2022-09-01T14:58:50;10.18;;;7.28;;
35675;SDS011;21790;42.668;23.298;2022-09-01T15:01:18;13.27;;;7.93;;
35675;SDS011;21790;42.668;23.298;2022-09-01T15:03:45;11.25;;;8.52;;
35675;SDS011;21790;42.668;23.298;2022-09-01T15:06:12;12.80;;;7.70;;
35675;SDS011;21790;42.668;23.298;2022-09-01T15:08:39;12.85;;;8.00;;
35675;SDS011;21790;42.668;23.298;2022-09-01T15:11:09;13.07;;;7.55;;
35675;SDS011;21790;42.668;23.298;2022-09-01T15:13:37;10.88;;;8.13;;
35675;SDS011;21790;42.668;23.298;2022-09-01T15:16:04;14.07;;;7.90;;
35675;SDS011;21790;42.668;23.298;2022-09-01T15:18:36;15.20;;;7.78;;
35675;SDS011;21790;42.668;23.298;2022-09-01T15:21:03;11.65;;;7.70;;
35675;SDS011;21790;42.668;23.298;2022-09-01T15:23:28;9.95;;;7.38;;
35675;SDS011;21790;42.668;23.298;2022-09-01T15:25:54;13.65;;;8.05;;
35675;SDS011;21790;42.668;23.298;2022-09-01T15:28:21;12.98;;;7.75;;
35675;SDS011;21790;42.668;23.298;2022-09-01T15:30:47;12.27;;;8.05;;
35675;SDS011;21790;42.668;23.298;2022-09-01T15:33:14;14.98;;;8.13;;
35675;SDS011;21790;42.668;23.298;2022-09-01T15:35:39;13.32;;;8.02;;
35675;SDS011;21790;42.668;23.298;2022-09-01T15:38:05;15.07;;;9.35;;
35675;SDS011;21790;42.668;23.298;2022-09-01T15:40:31;12.18;;;7.57;;
35675;SDS011;21790;42.668;23.298;2022-09-01T15:42:58;12.27;;;8.52;;
35675;SDS011;21790;42.668;23.298;2022-09-01T15:45:24;17.40;;;8.15;;